Time;durP1;ratioP1;P1;durP2;ratioP2;P2;SDS_P1;SDS_P2;PMS_P1;PMS_P2;Temp;Humidity;BMP_temperature;BMP_pressure;BME280_temperature;BME280_humidity;BME280_pressure;Samples;Min_cycle;Max_cycle;Signal;HPM_P1;HPM_P2
2023/09/14 00:21:33;;;;;;;;;;;;;;;19.59;65.10;100231.75;1087690;47;19950;-78
2023/09/14 00:22:49;;;;;;;;;;;;;;;19.63;65.39;100232.16;1087499;47;19951;-79
2023/09/14 00:25:11;;;;;;;;;;;;;;;19.60;65.19;100232.56;1087965;47;19965;-79
2023/09/14 00:26:12;;;;;;;;;;;;;;;19.39;65.44;100239.72;1087761;54;20010;-79
2023/09/14 00:27:17;;;;;;;;;;;;;;;19.33;65.52;100241.34;1087855;47;19966;-79
2023/09/14 00:28:18;;;;;;;;;;;;;;;19.39;65.65;100231.59;1087904;47;19943;-79
2023/09/14 00:29:26;;;;;;;;;;;;;;;19.49;64.93;100239.38;1088039;46;19942;-81
2023/09/14 00:30:27;;;;;;;;;;;;;;;19.40;64.96;100233.28;1088065;54;19954;-79
2023/09/14 00:31:30;;;;;;;;;;;;;;;19.29;64.83;100241.94;1088041;54;19942;-80
2023/09/14 00:32:38;;;;;;;;;;;;;;;19.24;65.40;100233.59;1087364;54;19957;-80
2023/09/14 00:33:43;;;;;;;;;;;;;;;19.24;64.94;100233.59;1086982;46;20010;-79
2023/09/14 00:34:44;;;;;;;;;;;;;;;19.23;64.97;100235.44;1086620;47;19974;-78
2023/09/14 00:35:48;;;;;;;;;;;;;;;19.22;64.83;100236.50;1086818;47;19943;-78
2023/09/14 00:36:48;;;;;;;;;;;;;;;19.29;64.57;100240.09;1086621;54;19946;-79
2023/09/14 00:37:51;;;;;;;;;;;;;;;19.19;64.44;100239.59;1086279;54;19951;-78
2023/09/14 00:38:52;;;;;;;;;;;;;;;19.11;64.36;100237.84;1086487;54;19942;-79
2023/09/14 00:39:55;;;;;;;;;;;;;;;19.16;64.54;100243.53;1086408;54;19981;-79
2023/09/14 00:40:56;;;;;;;;;;;;;;;19.26;64.12;100237.75;1086886;47;19950;-80
2023/09/14 00:42:00;;;;;;;;;;;;;;;19.33;63.61;100237.81;1086310;47;20664;-79
2023/09/14 00:43:00;;;;;;;;;;;;;;;19.20;63.66;100238.56;1086308;54;19947;-79
2023/09/14 00:44:01;;;;;;;;;;;;;;;19.24;62.87;100239.81;1086544;54;19957;-81
2023/09/14 00:45:08;;;;;;;;;;;;;;;19.28;62.13;100242.97;1087836;39;20751;-79
2023/09/14 00:46:11;;;;;;;;;;;;;;;19.23;61.90;100243.56;1087275;47;20033;-80
2023/09/14 00:47:15;;;;;;;;;;;;;;;19.19;61.75;100245.00;1088395;46;19957;-84
2023/09/14 00:48:18;;;;;;;;;;;;;;;19.23;61.92;100248.97;1088260;54;20062;-83
2023/09/14 00:56:21;;;;;;;;;;;;;;;19.33;61.23;100248.66;1086702;54;19965;-79
2023/09/14 00:57:22;;;;;;;;;;;;;;;19.30;61.66;100240.91;1086612;46;19942;-78
2023/09/14 00:58:25;;;;;;;;;;;;;;;19.19;62.10;100245.00;1086437;47;19998;-78
2023/09/14 00:59:26;;;;;;;;;;;;;;;19.12;63.00;100238.72;1087757;39;20484;-79
2023/09/14 01:00:32;;;;;;;;;;;;;;;19.07;63.21;100258.25;1087134;54;20722;-79
2023/09/14 01:01:33;;;;;;;;;;;;;;;19.05;62.96;100243.22;1086700;54;20033;-79
2023/09/14 01:02:38;;;;;;;;;;;;;;;18.99;63.31;100250.25;1090567;39;20436;-80
2023/09/14 01:03:44;;;;;;;;;;;;;;;19.03;63.16;100246.13;1087379;46;19958;-79
2023/09/14 01:04:45;;;;;;;;;;;;;;;18.98;63.21;100240.47;1090870;39;20540;-79
2023/09/14 01:05:48;;;;;;;;;;;;;;;18.99;62.85;100245.69;1086738;54;19943;-79
2023/09/14 01:06:49;;;;;;;;;;;;;;;19.00;62.61;100241.94;1085488;54;20054;-79
2023/09/14 01:07:52;;;;;;;;;;;;;;;18.98;62.57;100238.59;1086143;54;21259;-80
2023/09/14 01:08:54;;;;;;;;;;;;;;;18.99;62.31;100250.25;1085952;54;19975;-79
2023/09/14 01:09:55;;;;;;;;;;;;;;;18.99;62.24;100251.09;1084928;54;20454;-79
2023/09/14 01:10:59;;;;;;;;;;;;;;;18.93;61.90;100241.06;1086388;39;20203;-79
2023/09/14 01:11:59;;;;;;;;;;;;;;;18.93;61.97;100245.63;1086029;47;19968;-79
2023/09/14 01:13:04;;;;;;;;;;;;;;;18.90;62.17;100248.69;1086575;54;19977;-80
2023/09/14 01:14:11;;;;;;;;;;;;;;;18.86;61.94;100248.22;1087118;46;20014;-79
2023/09/14 01:15:19;;;;;;;;;;;;;;;18.84;62.04;100240.31;1086519;46;19931;-79
2023/09/14 01:16:25;;;;;;;;;;;;;;;18.86;62.25;100238.25;1086703;47;19927;-79
2023/09/14 01:17:31;;;;;;;;;;;;;;;18.84;62.41;100245.72;1086590;54;19954;-79
2023/09/14 01:18:39;;;;;;;;;;;;;;;18.81;62.85;100245.28;1086692;54;19958;-80
2023/09/14 01:21:45;;;;;;;;;;;;;;;18.76;62.78;100254.00;1087290;47;19965;-79
2023/09/14 01:22:52;;;;;;;;;;;;;;;18.71;63.42;100253.72;1087207;46;19950;-80
2023/09/14 01:23:58;;;;;;;;;;;;;;;18.71;62.98;100249.16;1087264;54;19971;-80
2023/09/14 01:25:07;;;;;;;;;;;;;;;18.78;63.17;100256.50;1087633;54;19954;-80
2023/09/14 01:26:17;;;;;;;;;;;;;;;18.75;62.99;100251.50;1087640;47;19950;-80
2023/09/14 01:27:19;;;;;;;;;;;;;;;18.80;63.06;100260.69;1087540;54;19938;-79
2023/09/14 01:28:22;;;;;;;;;;;;;;;18.81;62.65;100251.53;1086850;54;19950;-80
2023/09/14 01:29:44;;;;;;;;;;;;;;;;;;;;;
2023/09/14 01:31:28;;;;;;;;;;;;;;;;;;;;;
2023/09/14 01:35:29;;;;;;;;;;;;;;;18.91;62.50;100258.47;1087405;47;19927;-81
2023/09/14 01:40:06;;;;;;;;;;;;;;;18.93;62.29;100254.59;1087787;46;19955;-80
2023/09/14 01:41:11;;;;;;;;;;;;;;;18.96;62.29;100250.66;1087681;54;19939;-80
2023/09/14 01:45:22;;;;;;;;;;;;;;;18.90;62.00;100249.53;1087540;47;19973;-81
2023/09/14 01:46:24;;;;;;;;;;;;;;;18.65;62.66;100251.78;1087062;47;19943;-81
2023/09/14 01:47:27;;;;;;;;;;;;;;;18.64;62.87;100250.09;1087268;54;19938;-79
2023/09/14 01:48:29;;;;;;;;;;;;;;;18.67;62.82;100247.03;1087320;54;20006;-80
2023/09/14 01:49:36;;;;;;;;;;;;;;;18.54;63.27;100251.25;1086052;54;19950;-80
2023/09/14 01:50:37;;;;;;;;;;;;;;;18.61;63.10;100255.94;1085806;54;19970;-80
2023/09/14 01:51:40;;;;;;;;;;;;;;;18.58;62.91;100259.00;1086845;54;19950;-80
2023/09/14 01:52:41;;;;;;;;;;;;;;;18.65;63.00;100258.06;1087435;47;19938;-79
2023/09/14 01:53:45;;;;;;;;;;;;;;;18.69;62.80;100256.63;1087198;54;19965;-80
2023/09/14 01:54:49;;;;;;;;;;;;;;;18.60;62.86;100254.25;1086864;54;20006;-80
2023/09/14 01:55:53;;;;;;;;;;;;;;;18.66;62.60;100256.19;1087184;54;19950;-80
2023/09/14 01:57:01;;;;;;;;;;;;;;;18.68;62.92;100254.13;1087717;47;19964;-80
2023/09/14 01:58:05;;;;;;;;;;;;;;;18.75;62.38;100255.03;1087657;54;19957;-80
2023/09/14 01:59:08;;;;;;;;;;;;;;;18.75;62.41;100248.78;1087617;54;19927;-80
2023/09/14 02:00:12;;;;;;;;;;;;;;;18.78;62.50;100251.94;1088942;39;20524;-79
2023/09/14 02:01:17;;;;;;;;;;;;;;;18.80;62.10;100254.44;1087507;54;19946;-80
2023/09/14 02:02:24;;;;;;;;;;;;;;;18.76;62.49;100259.41;1086748;47;20002;-78
2023/09/14 02:03:31;;;;;;;;;;;;;;;18.68;62.69;100254.13;1086825;54;19955;-78
2023/09/14 02:04:35;;;;;;;;;;;;;;;18.65;63.14;100252.66;1087118;54;19973;-80
2023/09/14 02:05:37;;;;;;;;;;;;;;;18.61;63.40;100247.81;1087275;46;19962;-80
2023/09/14 02:06:55;;;;;;;;;;;;;;;18.55;63.40;100250.25;1086982;54;19938;-80
2023/09/14 02:08:02;;;;;;;;;;;;;;;18.62;63.39;100254.88;1087160;54;19976;-79
2023/09/14 02:09:05;;;;;;;;;;;;;;;18.59;63.17;100252.56;1087077;54;20589;-80
2023/09/14 02:10:07;;;;;;;;;;;;;;;18.50;63.79;100252.69;1087087;54;20017;-80
2023/09/14 02:11:13;;;;;;;;;;;;;;;18.49;64.01;100248.31;1088760;39;20502;-79
2023/09/14 02:12:15;;;;;;;;;;;;;;;18.39;64.05;100248.59;1087522;47;19947;-79
2023/09/14 02:13:23;;;;;;;;;;;;;;;18.34;64.12;100251.06;1087459;47;19968;-80
2023/09/14 02:14:26;;;;;;;;;;;;;;;18.31;64.03;100250.59;1084510;54;19953;-78
2023/09/14 02:15:29;;;;;;;;;;;;;;;18.34;64.16;100256.47;1086261;54;19953;-78
2023/09/14 02:16:30;;;;;;;;;;;;;;;18.39;63.71;100250.50;1086477;54;19974;-79
2023/09/14 02:17:33;;;;;;;;;;;;;;;18.38;64.11;100257.75;1086576;54;20284;-79
2023/09/14 02:18:34;;;;;;;;;;;;;;;18.36;64.03;100253.56;1086781;54;19949;-78
2023/09/14 02:19:37;;;;;;;;;;;;;;;18.32;63.93;100260.41;1086251;54;19957;-80
2023/09/14 02:20:38;;;;;;;;;;;;;;;18.33;63.93;100254.78;1086891;47;19981;-78
2023/09/14 02:21:39;;;;;;;;;;;;;;;18.37;64.05;100266.06;1087130;47;19969;-78
2023/09/14 02:22:42;;;;;;;;;;;;;;;18.38;63.71;100263.16;1087062;47;19949;-78
2023/09/14 02:23:43;;;;;;;;;;;;;;;18.33;64.10;100264.75;1086734;54;19970;-79
2023/09/14 02:24:47;;;;;;;;;;;;;;;18.34;63.91;100261.03;1087080;47;19967;-79
2023/09/14 02:25:49;;;;;;;;;;;;;;;18.33;63.99;100265.63;1086714;47;20951;-79
2023/09/14 02:26:54;;;;;;;;;;;;;;;18.32;63.67;100268.53;1086475;54;20007;-79
2023/09/14 02:27:56;;;;;;;;;;;;;;;18.21;64.03;100259.00;1086382;54;19942;-78
2023/09/14 02:29:04;;;;;;;;;;;;;;;18.24;64.12;100262.16;1087362;47;19942;-79
2023/09/14 02:30:13;;;;;;;;;;;;;;;18.09;64.32;100264.06;1087326;54;19942;-79
2023/09/14 02:31:19;;;;;;;;;;;;;;;17.93;64.97;100265.09;1087523;47;19942;-80
2023/09/14 02:32:20;;;;;;;;;;;;;;;17.97;64.84;100270.97;1087678;54;19938;-79
2023/09/14 02:33:24;;;;;;;;;;;;;;;18.06;64.86;100270.72;1087780;47;19943;-78
2023/09/14 02:34:25;;;;;;;;;;;;;;;18.11;64.47;100272.84;1087855;54;19942;-79
2023/09/14 02:35:26;;;;;;;;;;;;;;;18.11;64.79;100272.84;1087731;54;19941;-78
2023/09/14 02:36:30;;;;;;;;;;;;;;;18.03;65.16;100270.25;1087797;46;19942;-79
2023/09/14 02:37:31;;;;;;;;;;;;;;;18.10;64.28;100265.75;1087693;47;19942;-80
2023/09/14 02:38:36;;;;;;;;;;;;;;;18.08;64.60;100271.38;1087743;54;19976;-79
2023/09/14 02:39:37;;;;;;;;;;;;;;;18.13;64.46;100270.81;1087610;47;19966;-80
2023/09/14 02:40:41;;;;;;;;;;;;;;;18.11;64.46;100263.88;1087760;47;19957;-79
2023/09/14 02:56:55;;;;;;;;;;;;;;;17.70;66.23;100274.16;1087129;47;19955;-79
2023/09/14 02:57:56;;;;;;;;;;;;;;;17.64;66.57;100268.66;1087550;47;20014;-79
2023/09/14 02:59:06;;;;;;;;;;;;;;;17.61;66.65;100275.28;1087708;47;19966;-79
2023/09/14 03:00:12;;;;;;;;;;;;;;;17.62;66.60;100271.50;1087855;54;19942;-80
2023/09/14 03:01:21;;;;;;;;;;;;;;;17.59;66.51;100272.72;1088234;54;19994;-79
2023/09/14 03:02:26;;;;;;;;;;;;;;;17.61;66.60;100277.97;1088114;54;19943;-79
2023/09/14 03:06:34;;;;;;;;;;;;;;;17.58;66.88;100279.16;1087990;47;19927;-79
2023/09/14 03:07:34;;;;;;;;;;;;;;;17.60;66.54;100271.72;1086407;54;19954;-78
2023/09/14 03:08:35;;;;;;;;;;;;;;;17.56;66.72;100270.41;1086323;54;19981;-79
2023/09/14 03:09:39;;;;;;;;;;;;;;;17.52;67.21;100271.81;1087706;54;19950;-79
2023/09/14 03:10:42;;;;;;;;;;;;;;;17.45;67.12;100273.56;1087966;47;19954;-79
2023/09/14 03:11:46;;;;;;;;;;;;;;;17.44;67.71;100282.69;1088083;54;19949;-79
2023/09/14 03:13:04;;;;;;;;;;;;;;;17.30;67.94;100279.78;1088187;54;19927;-80
2023/09/14 03:14:19;;;;;;;;;;;;;;;17.35;68.13;100270.28;1088260;47;19958;-79
2023/09/14 03:15:20;;;;;;;;;;;;;;;17.22;68.42;100277.16;1088141;54;19958;-78
2023/09/14 03:16:24;;;;;;;;;;;;;;;17.25;68.09;100278.63;1088095;47;19950;-79
2023/09/14 03:17:31;;;;;;;;;;;;;;;17.27;67.89;100280.16;1088084;54;20023;-80
2023/09/14 03:18:38;;;;;;;;;;;;;;;17.29;68.12;100280.78;1088179;47;19926;-79
2023/09/14 03:20:14;;;;;;;;;;;;;;;17.35;67.93;100283.81;1088030;47;19986;-79
2023/09/14 03:21:28;;;;;;;;;;;;;;;17.26;68.18;100283.88;1088316;54;19927;-80
2023/09/14 03:22:55;;;;;;;;;;;;;;;17.28;68.19;100283.69;1088271;54;19965;-79
2023/09/14 03:25:42;;;;;;;;;;;;;;;17.30;68.16;100287.88;1088177;47;19954;-80
2023/09/14 03:26:43;;;;;;;;;;;;;;;17.27;68.34;100288.25;1088376;47;19966;-78
2023/09/14 03:27:51;;;;;;;;;;;;;;;17.33;67.56;100285.84;1088480;47;20002;-79
2023/09/14 03:28:52;;;;;;;;;;;;;;;17.37;67.53;100287.16;1088464;47;19995;-79
2023/09/14 03:30:00;;;;;;;;;;;;;;;17.37;67.58;100292.56;1088314;54;19943;-79
2023/09/14 03:31:03;;;;;;;;;;;;;;;17.31;68.23;100291.44;1088327;47;19943;-81
2023/09/14 03:32:07;;;;;;;;;;;;;;;17.31;68.24;100291.44;1088754;39;20299;-79
2023/09/14 03:33:08;;;;;;;;;;;;;;;17.27;68.09;100298.22;1088306;47;19954;-80
2023/09/14 03:34:11;;;;;;;;;;;;;;;17.18;68.77;100302.88;1088510;54;20208;-79
2023/09/14 03:35:13;;;;;;;;;;;;;;;17.23;68.61;100300.44;1088466;54;19995;-79
2023/09/14 03:37:32;;;;;;;;;;;;;;;17.27;68.28;100293.66;1088361;47;19942;-78
2023/09/14 03:38:33;;;;;;;;;;;;;;;17.27;68.17;100296.38;1088432;54;19941;-79
2023/09/14 03:39:38;;;;;;;;;;;;;;;17.26;68.12;100302.78;1088295;54;19935;-80
2023/09/14 03:40:44;;;;;;;;;;;;;;;17.33;67.85;100302.06;1088296;46;19965;-80
2023/09/14 03:41:49;;;;;;;;;;;;;;;17.29;67.96;100298.88;1088306;47;20002;-78
2023/09/14 03:42:49;;;;;;;;;;;;;;;17.26;68.36;100300.09;1088357;47;19950;-79
2023/09/14 03:47:15;;;;;;;;;;;;;;;17.28;67.97;100305.31;1088462;47;19986;-80
2023/09/14 03:48:20;;;;;;;;;;;;;;;17.24;68.32;100298.59;1088521;47;19966;-79
2023/09/14 03:49:25;;;;;;;;;;;;;;;17.18;68.61;100296.59;1088498;54;20002;-79
2023/09/14 03:50:28;;;;;;;;;;;;;;;17.11;68.80;100301.88;1088334;47;19958;-79
2023/09/14 03:51:34;;;;;;;;;;;;;;;17.12;68.91;100303.56;1088553;54;20763;-80
2023/09/14 03:52:41;;;;;;;;;;;;;;;17.01;68.98;100307.56;1088563;54;19998;-79
2023/09/14 03:53:45;;;;;;;;;;;;;;;17.08;68.43;100304.97;1088459;54;19975;-80
2023/09/14 03:54:46;;;;;;;;;;;;;;;17.07;68.77;100303.28;1088387;47;19958;-80
2023/09/14 03:59:16;;;;;;;;;;;;;;;;;;;;;
2023/09/14 04:05:28;;;;;;;;;;;;;;;16.87;69.51;100314.53;1088265;46;19949;-80
2023/09/14 04:06:29;;;;;;;;;;;;;;;16.86;69.74;100312.03;1088193;54;19955;-80
2023/09/14 04:52:48;;;;;;;;;;;;;;;16.67;70.64;100352.78;1086855;54;19934;-78
2023/09/14 05:19:42;;;;;;;;;;;;;;;16.21;71.07;100364.28;1087608;54;20003;-79
2023/09/14 05:20:43;;;;;;;;;;;;;;;16.28;71.20;100359.03;1087278;47;20038;-80
2023/09/14 05:25:17;;;;;;;;;;;;;;;16.15;71.63;100372.25;1087580;47;19942;-78
2023/09/14 05:32:04;;;;;;;;;;;;;;;16.01;72.31;100379.22;1087436;47;19987;-79
2023/09/14 05:33:05;;;;;;;;;;;;;;;15.97;72.38;100377.84;1087238;46;19946;-78
2023/09/14 05:34:23;;;;;;;;;;;;;;;16.02;72.38;100373.63;1087764;54;19933;-81
2023/09/14 05:35:34;;;;;;;;;;;;;;;16.04;72.09;100382.41;1087612;54;20020;-80
2023/09/14 05:38:26;;;;;;;;;;;;;;;16.29;71.51;100368.81;1087770;47;19990;-79
2023/09/14 05:39:31;;;;;;;;;;;;;;;16.27;71.40;100375.41;1087512;54;19954;-77
2023/09/14 05:40:53;;;;;;;;;;;;;;;16.30;71.54;100378.59;1087762;54;19948;-79
2023/09/14 05:41:54;;;;;;;;;;;;;;;16.39;71.21;100374.00;1088108;47;19943;-80
2023/09/14 05:43:18;;;;;;;;;;;;;;;16.31;70.95;100377.59;1088136;54;19943;-81
2023/09/14 05:44:19;;;;;;;;;;;;;;;16.31;71.35;100380.28;1087938;47;19990;-80
2023/09/14 05:45:40;;;;;;;;;;;;;;;16.35;71.22;100378.06;1087883;54;19943;-81
2023/09/14 05:46:40;;;;;;;;;;;;;;;16.24;71.52;100378.44;1087700;47;19954;-78
2023/09/14 05:47:44;;;;;;;;;;;;;;;16.12;71.49;100376.13;1087739;47;19969;-79
2023/09/14 05:48:45;;;;;;;;;;;;;;;16.04;71.70;100385.09;1087721;54;19934;-79
2023/09/14 05:49:47;;;;;;;;;;;;;;;16.03;71.95;100383.41;1087937;54;19949;-80
2023/09/14 05:51:18;;;;;;;;;;;;;;;16.05;71.86;100381.38;1087820;54;19949;-82
2023/09/14 06:12:01;;;;;;;;;;;;;;;16.36;70.18;100394.09;1087084;54;19934;-79
2023/09/14 06:23:27;;;;;;;;;;;;;;;16.16;69.79;100398.19;1087278;47;20009;-80
2023/09/14 06:24:28;;;;;;;;;;;;;;;16.21;69.85;100396.66;1087115;51;19994;-78
2023/09/14 06:25:43;;;;;;;;;;;;;;;16.17;70.11;100402.56;1086996;47;20956;-80
2023/09/14 06:26:44;;;;;;;;;;;;;;;16.15;70.07;100396.53;1087059;47;19968;-78
2023/09/14 06:27:54;;;;;;;;;;;;;;;16.11;69.97;100398.72;1086949;54;19999;-79
2023/09/14 06:28:55;;;;;;;;;;;;;;;16.13;70.15;100403.94;1086881;54;19949;-79
2023/09/14 06:30:06;;;;;;;;;;;;;;;16.19;69.63;100392.47;1085895;47;19977;-80
2023/09/14 06:31:07;;;;;;;;;;;;;;;16.07;69.71;100394.69;1085428;54;19976;-80
2023/09/14 06:32:11;;;;;;;;;;;;;;;16.17;69.52;100405.25;1085960;47;19997;-78
2023/09/14 06:33:12;;;;;;;;;;;;;;;16.28;69.64;100406.78;1085980;47;19992;-80
2023/09/14 06:34:16;;;;;;;;;;;;;;;16.38;69.13;100397.44;1086385;54;19974;-79
2023/09/14 06:35:17;;;;;;;;;;;;;;;16.28;69.38;100401.38;1085312;54;19954;-80
2023/09/14 06:36:33;;;;;;;;;;;;;;;16.40;69.14;100409.94;1084542;54;19959;-79
2023/09/14 06:37:34;;;;;;;;;;;;;;;16.48;68.72;100410.72;1085391;47;19954;-80
2023/09/14 06:38:45;;;;;;;;;;;;;;;16.59;68.59;100409.53;1086155;47;19950;-78
2023/09/14 06:39:46;;;;;;;;;;;;;;;16.57;68.15;100414.25;1087743;39;20446;-79
2023/09/14 06:40:50;;;;;;;;;;;;;;;16.44;68.36;100405.84;1085199;47;19946;-78
2023/09/14 06:41:51;;;;;;;;;;;;;;;16.38;68.87;100408.25;1084058;54;19947;-78
2023/09/14 06:42:54;;;;;;;;;;;;;;;16.41;68.49;100408.91;1084512;54;20042;-80
2023/09/14 06:43:55;;;;;;;;;;;;;;;16.45;68.53;100413.78;1085434;47;20070;-77
2023/09/14 06:51:12;;;;;;;;;;;;;;;16.52;67.90;100408.53;1087387;47;19962;-80
2023/09/14 06:52:18;;;;;;;;;;;;;;;16.44;68.55;100409.41;1086890;47;19950;-78
2023/09/14 06:53:33;;;;;;;;;;;;;;;16.46;68.10;100406.53;1087095;47;19951;-78
2023/09/14 06:54:49;;;;;;;;;;;;;;;16.47;68.72;100410.91;1087028;47;19991;-80
2023/09/14 07:00:41;;;;;;;;;;;;;;;16.83;67.21;100396.91;1087362;47;19923;-79
2023/09/14 07:05:14;;;;;;;;;;;;;;;16.71;67.44;100404.56;1087951;47;19919;-80
2023/09/14 07:08:01;;;;;;;;;;;;;;;16.63;68.01;100400.03;1087429;47;19949;-80
2023/09/14 07:09:33;;;;;;;;;;;;;;;16.49;68.30;100396.22;1087449;54;19942;-79
2023/09/14 07:10:37;;;;;;;;;;;;;;;16.49;68.40;100403.47;1087157;54;19943;-80
2023/09/14 07:11:38;;;;;;;;;;;;;;;16.45;68.61;100404.84;1088069;39;20501;-79
2023/09/14 07:12:43;;;;;;;;;;;;;;;16.37;69.00;100403.03;1084470;47;19962;-79
2023/09/14 07:13:44;;;;;;;;;;;;;;;16.40;68.98;100404.53;1087636;39;20486;-80
2023/09/14 07:14:48;;;;;;;;;;;;;;;16.38;69.24;100405.53;1086427;54;19966;-80
2023/09/14 07:15:52;;;;;;;;;;;;;;;16.43;68.82;100404.19;1085992;54;19951;-79
2023/09/14 07:16:56;;;;;;;;;;;;;;;16.60;68.17;100400.41;1086803;54;19943;-80
2023/09/14 07:17:56;;;;;;;;;;;;;;;16.75;67.83;100396.94;1086960;47;19943;-79
2023/09/14 07:19:14;;;;;;;;;;;;;;;;;;;;;
2023/09/14 07:20:15;;;;;;;;;;;;;;;16.68;67.55;100397.66;1086680;54;19950;-78
2023/09/14 07:21:18;;;;;;;;;;;;;;;16.63;67.72;100400.03;1086910;54;19942;-80
2023/09/14 07:22:19;;;;;;;;;;;;;;;16.66;67.70;100399.69;1086898;54;19948;-78
2023/09/14 07:23:23;;;;;;;;;;;;;;;16.64;67.93;100393.63;1086930;54;19969;-79
2023/09/14 07:24:23;;;;;;;;;;;;;;;16.77;67.56;100403.03;1086733;47;19985;-78
2023/09/14 07:25:28;;;;;;;;;;;;;;;16.88;67.24;100402.63;1086793;54;19950;-79
2023/09/14 07:26:28;;;;;;;;;;;;;;;16.93;66.65;100402.94;1087263;39;20824;-79
2023/09/14 07:27:32;;;;;;;;;;;;;;;17.03;66.59;100401.88;1086679;47;19975;-79
2023/09/14 07:28:33;;;;;;;;;;;;;;;17.10;66.03;100402.84;1088088;39;20543;-78
2023/09/14 07:29:37;;;;;;;;;;;;;;;17.06;65.80;100399.66;1086875;47;19942;-79
2023/09/14 07:30:38;;;;;;;;;;;;;;;17.04;65.77;100407.13;1086943;54;19965;-78
2023/09/14 07:31:44;;;;;;;;;;;;;;;16.89;66.37;100404.31;1087262;54;19942;-79
2023/09/14 07:32:45;;;;;;;;;;;;;;;16.80;66.38;100408.06;1087220;47;19954;-78
2023/09/14 07:33:49;;;;;;;;;;;;;;;16.92;66.13;100409.34;1087203;54;19943;-79
2023/09/14 07:34:49;;;;;;;;;;;;;;;17.04;66.04;100407.13;1086402;47;20006;-80
2023/09/14 07:35:52;;;;;;;;;;;;;;;17.20;65.52;100400.75;1086638;54;21213;-78
2023/09/14 07:36:53;;;;;;;;;;;;;;;17.23;65.36;100410.38;1086348;46;19951;-78
2023/09/14 07:37:57;;;;;;;;;;;;;;;17.13;65.44;100418.69;1087412;54;19969;-78
2023/09/14 07:38:58;;;;;;;;;;;;;;;17.28;65.15;100413.38;1086191;54;19950;-78
2023/09/14 07:40:03;;;;;;;;;;;;;;;17.27;65.12;100414.38;1086808;54;19950;-79
2023/09/14 07:41:04;;;;;;;;;;;;;;;17.31;64.86;100405.75;1086939;47;19950;-78
2023/09/14 07:42:07;;;;;;;;;;;;;;;17.35;64.64;100414.31;1087105;54;19985;-79
2023/09/14 07:43:08;;;;;;;;;;;;;;;17.34;64.54;100419.91;1087852;39;20608;-79
2023/09/14 07:44:12;;;;;;;;;;;;;;;17.41;64.32;100413.63;1086559;46;19950;-78
2023/09/14 07:45:13;;;;;;;;;;;;;;;17.52;63.93;100417.75;1086056;54;19958;-78
2023/09/14 07:46:16;;;;;;;;;;;;;;;17.61;63.88;100418.53;1086142;54;19958;-78
2023/09/14 07:47:19;;;;;;;;;;;;;;;17.64;63.96;100422.72;1085641;46;19943;-78
2023/09/14 07:48:23;;;;;;;;;;;;;;;17.72;63.55;100419.94;1086001;47;19942;-78
2023/09/14 07:49:23;;;;;;;;;;;;;;;17.51;63.12;100420.63;1085917;54;19949;-78
2023/09/14 07:50:27;;;;;;;;;;;;;;;17.36;63.79;100426.81;1086147;47;19957;-78
2023/09/14 07:51:27;;;;;;;;;;;;;;;17.27;63.75;100428.75;1085679;54;20012;-78
2023/09/14 07:52:31;;;;;;;;;;;;;;;17.17;64.38;100433.53;1086736;46;19946;-78
2023/09/14 07:53:31;;;;;;;;;;;;;;;17.17;64.73;100433.53;1086529;54;20006;-79
2023/09/14 07:54:36;;;;;;;;;;;;;;;17.15;64.29;100430.16;1087123;54;19942;-79
2023/09/14 07:55:38;;;;;;;;;;;;;;;17.21;63.93;100434.84;1086527;47;19942;-79
2023/09/14 07:56:43;;;;;;;;;;;;;;;17.21;63.87;100432.16;1086716;47;19943;-78
2023/09/14 07:57:45;;;;;;;;;;;;;;;17.26;64.02;100432.47;1086705;47;19951;-79
2023/09/14 07:58:48;;;;;;;;;;;;;;;17.32;64.02;100436.31;1086672;54;19957;-79
2023/09/14 07:59:49;;;;;;;;;;;;;;;17.37;63.67;100430.38;1085292;54;19960;-80
2023/09/14 08:00:53;;;;;;;;;;;;;;;17.31;64.17;100432.75;1086486;47;19950;-78
2023/09/14 08:01:54;;;;;;;;;;;;;;;17.28;63.39;100440.38;1086261;46;19950;-79
2023/09/14 08:03:00;;;;;;;;;;;;;;;17.25;63.78;100430.78;1086075;54;19973;-78
2023/09/14 08:04:03;;;;;;;;;;;;;;;17.16;63.79;100437.25;1085369;54;19973;-78
2023/09/14 08:05:07;;;;;;;;;;;;;;;17.05;64.20;100437.66;1086146;54;19958;-79
2023/09/14 08:06:08;;;;;;;;;;;;;;;17.19;63.81;100442.31;1084801;47;19975;-78
2023/09/14 08:07:11;;;;;;;;;;;;;;;17.18;63.55;100440.63;1084686;54;19958;-78
2023/09/14 08:08:12;;;;;;;;;;;;;;;17.12;63.84;100436.78;1085192;54;20686;-78
2023/09/14 08:09:15;;;;;;;;;;;;;;;17.14;63.96;100439.28;1085803;47;19955;-79
2023/09/14 08:10:16;;;;;;;;;;;;;;;17.14;64.18;100447.41;1085518;47;19982;-78
2023/09/14 08:11:19;;;;;;;;;;;;;;;17.16;63.86;100439.97;1084542;54;19951;-78
2023/09/14 08:12:20;;;;;;;;;;;;;;;17.08;64.01;100440.00;1085811;47;20040;-77
2023/09/14 08:13:24;;;;;;;;;;;;;;;17.15;64.01;100439.09;1085772;54;19951;-78
2023/09/14 08:14:25;;;;;;;;;;;;;;;17.29;63.47;100442.91;1085779;54;19950;-79
2023/09/14 08:15:28;;;;;;;;;;;;;;;17.28;63.81;100443.09;1086173;47;19946;-76
2023/09/14 08:16:30;;;;;;;;;;;;;;;17.33;63.71;100443.41;1085299;39;20485;-78
2023/09/14 08:17:31;;;;;;;;;;;;;;;17.38;63.29;100445.56;1086225;47;19943;-79
2023/09/14 08:18:37;;;;;;;;;;;;;;;17.28;63.60;100449.34;1087369;39;20652;-79
2023/09/14 08:19:38;;;;;;;;;;;;;;;17.50;63.26;100441.41;1086237;47;19973;-79
2023/09/14 08:20:42;;;;;;;;;;;;;;;17.64;63.13;100447.06;1085940;46;19943;-78
2023/09/14 08:21:43;;;;;;;;;;;;;;;17.76;62.45;100440.16;1085965;54;19950;-80
2023/09/14 08:22:47;;;;;;;;;;;;;;;17.88;62.26;100443.31;1086040;52;19962;-79
2023/09/14 08:23:48;;;;;;;;;;;;;;;17.76;62.50;100441.03;1085647;47;20681;-79
2023/09/14 08:24:52;;;;;;;;;;;;;;;17.93;62.45;100439.03;1086197;54;20777;-79
2023/09/14 08:25:52;;;;;;;;;;;;;;;18.08;61.79;100435.53;1086571;47;19953;-79
2023/09/14 08:26:53;;;;;;;;;;;;;;;18.11;61.55;100445.97;1086127;54;20609;-79
2023/09/14 08:27:56;;;;;;;;;;;;;;;18.00;61.46;100447.25;1086422;54;19950;-78
2023/09/14 08:28:58;;;;;;;;;;;;;;;18.00;62.11;100449.97;1086640;46;19943;-79
2023/09/14 08:30:02;;;;;;;;;;;;;;;17.92;61.75;100447.31;1086634;47;19976;-79
2023/09/14 08:31:03;;;;;;;;;;;;;;;17.84;62.22;100445.53;1086885;46;19954;-79
2023/09/14 08:32:07;;;;;;;;;;;;;;;17.84;62.15;100450.09;1086502;54;19951;-79
2023/09/14 08:33:08;;;;;;;;;;;;;;;17.98;61.94;100452.03;1086592;54;19975;-79
2023/09/14 08:34:14;;;;;;;;;;;;;;;18.10;61.39;100447.00;1086544;47;19951;-78
2023/09/14 08:35:21;;;;;;;;;;;;;;;18.24;61.22;100450.75;1085928;47;19951;-78
2023/09/14 08:36:25;;;;;;;;;;;;;;;18.30;61.18;100447.28;1086543;54;19942;-80
2023/09/14 08:37:27;;;;;;;;;;;;;;;18.42;60.99;100446.84;1086119;47;20037;-78
2023/09/14 08:38:30;;;;;;;;;;;;;;;18.55;60.76;100444.31;1086601;54;19950;-79
2023/09/14 08:39:31;;;;;;;;;;;;;;;18.62;60.69;100452.50;1086679;54;20042;-79
2023/09/14 08:40:34;;;;;;;;;;;;;;;18.69;60.38;100448.88;1086656;47;19977;-78
2023/09/14 08:41:36;;;;;;;;;;;;;;;18.60;60.03;100450.00;1086789;54;19954;-79
2023/09/14 08:42:39;;;;;;;;;;;;;;;18.62;60.38;100447.09;1087050;39;20711;-77
2023/09/14 08:43:45;;;;;;;;;;;;;;;18.56;60.50;100454.13;1086675;54;20712;-79
2023/09/14 08:44:50;;;;;;;;;;;;;;;18.49;60.51;100454.03;1086987;47;20895;-79
2023/09/14 08:45:55;;;;;;;;;;;;;;;18.37;60.75;100456.34;1087537;39;20658;-79
2023/09/14 08:46:59;;;;;;;;;;;;;;;18.26;60.88;100454.13;1087506;54;19947;-78
2023/09/14 08:48:01;;;;;;;;;;;;;;;18.24;61.10;100448.03;1087543;54;19964;-80
2023/09/14 08:49:36;;;;;;;;;;;;;;;18.33;61.30;100452.34;1087605;54;19943;-80
2023/09/14 08:50:39;;;;;;;;;;;;;;;18.59;60.64;100448.31;1086934;47;19942;-79
2023/09/14 08:51:49;;;;;;;;;;;;;;;18.66;60.26;100446.53;1087265;47;19970;-80
2023/09/14 08:52:50;;;;;;;;;;;;;;;18.79;60.06;100447.72;1087395;47;20034;-80
2023/09/14 08:53:55;;;;;;;;;;;;;;;18.55;60.57;100441.63;1087330;54;19951;-79
2023/09/14 08:54:56;;;;;;;;;;;;;;;18.57;60.25;100442.25;1086710;47;20015;-79
2023/09/14 08:55:59;;;;;;;;;;;;;;;18.63;59.99;100437.94;1086789;54;20000;-79